Time;durP1;ratioP1;P1;durP2;ratioP2;P2;SDS_P1;SDS_P2;PMS_P1;PMS_P2;Temp;Humidity;BMP_temperature;BMP_pressure;BME280_temperature;BME280_humidity;BME280_pressure;Samples;Min_cycle;Max_cycle;Signal;HPM_P1;HPM_P2
2023/06/02 00:01:24;;;;;;;7.38;2.00;;;10.00;99.90;;;;;;5063798;28;20466;-42
2023/06/02 00:03:55;;;;;;;7.72;2.00;;;10.00;99.90;;;;;;5062284;28;20036;-42
2023/06/02 00:06:21;;;;;;;9.25;2.00;;;10.00;99.90;;;;;;5047541;28;20053;-43
2023/06/02 00:08:48;;;;;;;11.90;1.75;;;10.00;99.90;;;;;;5065393;28;20040;-42
2023/06/02 00:11:14;;;;;;;10.57;2.35;;;10.00;99.90;;;;;;5047490;28;20105;-42
2023/06/02 00:13:41;;;;;;;11.50;2.10;;;10.00;99.90;;;;;;5057575;28;20333;-42
2023/06/02 00:16:20;;;;;;;5.63;1.98;;;10.00;99.90;;;;;;5050415;28;20446;-43
2023/06/02 00:18:47;;;;;;;6.97;1.48;;;10.00;99.90;;;;;;5062150;28;20495;-42
2023/06/02 00:21:19;;;;;;;13.23;2.33;;;10.00;99.90;;;;;;5042509;28;20067;-43
2023/06/02 00:23:45;;;;;;;10.77;1.83;;;10.00;99.90;;;;;;5028751;28;20056;-42
2023/06/02 00:26:12;;;;;;;8.43;1.85;;;9.90;99.90;;;;;;5059118;28;20037;-42
2023/06/02 00:28:38;;;;;;;7.47;1.95;;;9.90;99.90;;;;;;5035914;28;20040;-42
2023/06/02 00:31:04;;;;;;;12.73;1.83;;;9.90;99.90;;;;;;5065153;28;20040;-42
2023/06/02 00:33:38;;;;;;;5.65;1.52;;;9.80;99.90;;;;;;5056420;28;20051;-43
2023/06/02 00:36:11;;;;;;;8.95;2.10;;;9.80;99.90;;;;;;5054112;28;20547;-42
2023/06/02 00:38:57;;;;;;;8.90;1.83;;;9.80;99.90;;;;;;5053306;28;20047;-43
2023/06/02 00:41:29;;;;;;;10.45;2.33;;;9.70;99.90;;;;;;5045052;28;20700;-42
2023/06/02 00:43:56;;;;;;;9.68;1.70;;;9.70;99.90;;;;;;5038748;28;20080;-42
2023/06/02 00:46:24;;;;;;;9.48;1.90;;;9.70;99.90;;;;;;5043795;28;20501;-42
2023/06/02 00:48:50;;;;;;;7.63;2.10;;;9.70;99.90;;;;;;5039036;28;20082;-43
2023/06/02 00:51:18;;;;;;;8.02;1.77;;;9.70;99.90;;;;;;5029390;28;20039;-42
2023/06/02 00:53:45;;;;;;;10.55;1.88;;;9.70;99.90;;;;;;5015563;28;20025;-42
2023/06/02 00:56:16;;;;;;;6.65;2.10;;;9.70;99.90;;;;;;5040429;28;20636;-43
2023/06/02 00:58:45;;;;;;;6.53;1.67;;;9.70;99.90;;;;;;4999411;28;20483;-42
2023/06/02 01:01:12;;;;;;;8.60;2.13;;;9.60;99.90;;;;;;5042907;28;20484;-42
2023/06/02 01:03:42;;;;;;;8.23;1.63;;;9.60;99.90;;;;;;5021431;28;20075;-42
2023/06/02 01:06:09;;;;;;;6.57;1.67;;;9.60;99.90;;;;;;5021748;28;20041;-43
2023/06/02 01:08:38;;;;;;;12.80;2.17;;;9.60;99.90;;;;;;5015066;28;20040;-43
2023/06/02 01:11:05;;;;;;;5.70;1.70;;;9.50;99.90;;;;;;5035583;28;20111;-42
2023/06/02 01:13:31;;;;;;;8.20;2.05;;;9.50;99.90;;;;;;5039217;28;20046;-42
2023/06/02 01:15:57;;;;;;;5.80;1.63;;;9.50;99.90;;;;;;5014220;28;20046;-42
2023/06/02 01:18:25;;;;;;;7.78;2.08;;;9.50;99.90;;;;;;5027513;28;20384;-42
2023/06/02 01:20:57;;;;;;;10.27;1.65;;;9.50;99.90;;;;;;5044166;28;20219;-43
2023/06/02 01:23:33;;;;;;;8.77;1.52;;;9.50;99.90;;;;;;5027467;28;20038;-43
2023/06/02 01:26:01;;;;;;;7.47;1.92;;;9.50;99.90;;;;;;5043036;28;20053;-42
2023/06/02 01:28:27;;;;;;;;;;;9.50;99.90;;;;;;5049642;28;20399;-42
2023/06/02 01:31:05;;;;;;;6.10;1.50;;;9.50;99.90;;;;;;5045785;28;20006;-42
2023/06/02 01:33:43;;;;;;;10.05;1.90;;;9.50;99.90;;;;;;5030063;28;20499;-42
2023/06/02 01:36:09;;;;;;;8.43;1.77;;;9.60;99.90;;;;;;5040536;28;20041;-42
2023/06/02 01:38:41;;;;;;;9.23;1.92;;;9.60;99.90;;;;;;5032842;28;20057;-42
2023/06/02 01:41:07;;;;;;;10.80;2.08;;;9.60;99.90;;;;;;5028489;28;20045;-42
2023/06/02 01:43:34;;;;;;;7.82;1.67;;;9.60;99.90;;;;;;5020703;28;20052;-42
2023/06/02 01:46:01;;;;;;;7.47;1.63;;;9.70;99.90;;;;;;5052888;28;20061;-42
2023/06/02 01:48:29;;;;;;;7.37;1.70;;;9.70;99.90;;;;;;5066180;28;20048;-42
2023/06/02 01:50:55;;;;;;;8.40;2.10;;;9.70;99.90;;;;;;5061504;28;20983;-43
2023/06/02 01:53:21;;;;;;;7.50;1.55;;;9.70;99.90;;;;;;5044601;28;20138;-42
2023/06/02 01:55:49;;;;;;;10.90;2.75;;;9.80;99.90;;;;;;5059036;28;20403;-43
2023/06/02 01:58:15;;;;;;;8.63;1.95;;;9.70;99.90;;;;;;5042953;28;20109;-43
2023/06/02 02:00:41;;;;;;;8.70;1.67;;;9.70;99.90;;;;;;5048458;28;20080;-43
2023/06/02 02:03:07;;;;;;;8.23;2.17;;;9.70;99.90;;;;;;5059524;28;20064;-43
2023/06/02 02:05:32;;;;;;;9.00;1.45;;;9.70;99.90;;;;;;5036108;28;20060;-42
2023/06/02 02:07:58;;;;;;;7.65;1.88;;;9.80;99.90;;;;;;5027304;28;20040;-42
2023/06/02 02:10:24;;;;;;;9.02;2.17;;;9.80;99.90;;;;;;5057096;28;20036;-42
2023/06/02 02:12:49;;;;;;;9.90;2.13;;;9.80;99.90;;;;;;5067325;28;20119;-43
2023/06/02 02:15:16;;;;;;;9.82;1.90;;;9.80;99.90;;;;;;5042591;28;20832;-42
2023/06/02 02:17:45;;;;;;;9.10;1.77;;;9.80;99.90;;;;;;5041184;28;20052;-43
2023/06/02 02:20:16;;;;;;;8.50;1.92;;;9.80;99.90;;;;;;5036055;28;20110;-42
2023/06/02 02:22:43;;;;;;;7.68;1.65;;;9.80;99.90;;;;;;5060115;28;20372;-42
2023/06/02 02:25:09;;;;;;;6.18;1.50;;;9.80;99.90;;;;;;5037570;28;20064;-43
2023/06/02 02:27:36;;;;;;;8.45;1.80;;;9.90;99.90;;;;;;5062531;28;20162;-43
2023/06/02 02:30:03;;;;;;;8.73;2.20;;;9.80;99.90;;;;;;5057067;28;20346;-43
2023/06/02 02:32:33;;;;;;;8.50;1.92;;;9.80;99.90;;;;;;5059844;28;20738;-42
2023/06/02 02:35:03;;;;;;;9.68;2.40;;;9.80;99.90;;;;;;5055313;28;20179;-42
2023/06/02 02:37:28;;;;;;;8.68;1.90;;;9.80;99.90;;;;;;5061960;28;20052;-42
2023/06/02 02:39:56;;;;;;;9.18;1.85;;;9.80;99.90;;;;;;5059751;28;20044;-43
2023/06/02 02:42:21;;;;;;;10.93;2.00;;;9.80;99.90;;;;;;5043053;28;20123;-42
2023/06/02 02:44:47;;;;;;;7.78;1.83;;;9.90;99.90;;;;;;5033526;28;20556;-42
2023/06/02 02:47:13;;;;;;;7.65;1.90;;;9.90;99.90;;;;;;5054411;28;20052;-43
2023/06/02 02:49:39;;;;;;;11.63;2.17;;;9.90;99.90;;;;;;5030373;28;20064;-43
2023/06/02 02:52:05;;;;;;;11.00;1.90;;;9.90;99.90;;;;;;5057976;28;20120;-43
2023/06/02 02:54:30;;;;;;;12.60;1.98;;;9.90;99.90;;;;;;5054147;28;20036;-43
2023/06/02 02:56:56;;;;;;;6.63;1.58;;;9.90;99.90;;;;;;5051272;28;20064;-42
2023/06/02 02:59:22;;;;;;;9.90;2.30;;;10.00;99.90;;;;;;5050067;28;20175;-42
2023/06/02 03:01:54;;;;;;;9.45;2.05;;;10.00;99.90;;;;;;5060282;28;20395;-42
2023/06/02 03:04:21;;;;;;;8.00;2.08;;;10.00;99.90;;;;;;5040717;28;20040;-42
2023/06/02 03:06:49;;;;;;;12.68;2.20;;;10.00;99.90;;;;;;5058380;28;20643;-43
2023/06/02 03:09:18;;;;;;;9.02;1.92;;;10.00;99.90;;;;;;5056225;28;20394;-42
2023/06/02 03:11:45;;;;;;;13.57;2.17;;;10.00;99.90;;;;;;5058487;28;20032;-42
2023/06/02 03:14:12;;;;;;;13.70;2.28;;;10.00;99.90;;;;;;5057675;28;20045;-43
2023/06/02 03:16:41;;;;;;;11.20;2.17;;;10.00;99.90;;;;;;5052051;28;20083;-42
2023/06/02 03:19:14;;;;;;;9.80;1.98;;;10.10;99.90;;;;;;5046775;28;20049;-43
2023/06/02 03:21:44;;;;;;;9.38;1.90;;;10.10;99.90;;;;;;5053134;28;20102;-42
2023/06/02 03:24:15;;;;;;;7.38;2.17;;;10.10;99.90;;;;;;5060733;28;20105;-42
2023/06/02 03:26:43;;;;;;;9.13;1.98;;;10.10;99.90;;;;;;5056809;28;20041;-43
2023/06/02 03:29:10;;;;;;;9.15;2.20;;;10.10;99.90;;;;;;5044235;28;20500;-42
2023/06/02 03:31:36;;;;;;;12.68;2.30;;;10.20;99.90;;;;;;5054995;28;20514;-42
2023/06/02 03:34:06;;;;;;;8.20;2.08;;;10.20;99.90;;;;;;5051067;28;20032;-43
2023/06/02 03:36:35;;;;;;;8.88;2.17;;;10.20;99.90;;;;;;5064463;28;20045;-42
2023/06/02 03:39:07;;;;;;;9.32;1.92;;;10.20;99.90;;;;;;5062728;28;20048;-43
2023/06/02 03:41:35;;;;;;;13.57;2.40;;;10.20;99.90;;;;;;5052627;28;20056;-42
2023/06/02 03:44:02;;;;;;;9.77;1.77;;;10.20;99.90;;;;;;5062723;28;20492;-42
2023/06/02 03:46:28;;;;;;;9.30;2.67;;;10.20;99.90;;;;;;5057448;28;20059;-43
2023/06/02 03:48:54;;;;;;;9.57;2.72;;;10.20;99.90;;;;;;5056436;28;20055;-42
2023/06/02 03:51:20;;;;;;;14.82;2.42;;;10.30;99.90;;;;;;5051176;28;20204;-43
2023/06/02 03:53:48;;;;;;;9.40;2.67;;;10.30;99.90;;;;;;5032295;28;20103;-42
2023/06/02 03:56:14;;;;;;;12.27;2.50;;;10.30;99.90;;;;;;5064855;28;20141;-42
2023/06/02 03:58:43;;;;;;;14.40;2.38;;;10.40;99.90;;;;;;5054914;28;20032;-43
2023/06/02 04:01:12;;;;;;;13.00;2.45;;;10.40;99.90;;;;;;5052616;28;20114;-43
2023/06/02 04:03:41;;;;;;;13.30;2.50;;;10.40;99.90;;;;;;5039573;28;20044;-42
2023/06/02 04:06:10;;;;;;;7.75;2.20;;;10.40;99.90;;;;;;5053722;28;20041;-42
2023/06/02 04:08:38;;;;;;;9.32;2.33;;;10.40;99.90;;;;;;5062770;28;20048;-43
2023/06/02 04:11:04;;;;;;;12.82;2.00;;;10.50;99.90;;;;;;5042329;28;20102;-42
2023/06/02 04:13:30;;;;;;;11.45;2.70;;;10.50;99.90;;;;;;5034587;28;20090;-42
2023/06/02 04:15:56;;;;;;;10.38;2.03;;;10.50;99.90;;;;;;5055607;28;20045;-43
2023/06/02 04:18:21;;;;;;;8.45;2.17;;;10.50;99.90;;;;;;5054294;28;20050;-43
2023/06/02 04:20:50;;;;;;;11.57;2.40;;;10.50;99.90;;;;;;5056422;28;20704;-43
2023/06/02 04:23:16;;;;;;;16.13;3.00;;;10.60;99.90;;;;;;5041258;28;20041;-42
2023/06/02 04:25:42;;;;;;;9.90;2.47;;;10.60;99.90;;;;;;5043752;28;20052;-43
2023/06/02 04:28:07;;;;;;;10.52;2.10;;;10.60;99.90;;;;;;5056353;28;20102;-42
2023/06/02 04:30:36;;;;;;;7.72;2.00;;;10.70;99.90;;;;;;5062686;28;20049;-42
2023/06/02 04:33:03;;;;;;;7.65;2.30;;;10.60;99.90;;;;;;5059889;28;20040;-43
2023/06/02 04:35:30;;;;;;;8.77;2.30;;;10.70;99.90;;;;;;5033611;28;20047;-42
2023/06/02 04:38:15;;;;;;;11.45;2.58;;;10.70;99.90;;;;;;5055540;28;20037;-42
2023/06/02 04:41:08;;;;;;;;;;;10.80;99.90;;;;;;5052878;28;20190;-42
2023/06/02 04:46:37;;;;;;;10.02;2.90;;;10.80;99.90;;;;;;5023250;28;20069;-84
2023/06/02 04:49:08;;;;;;;10.23;3.08;;;10.80;99.90;;;;;;4957528;28;20080;-82
2023/06/02 04:51:35;;;;;;;11.55;2.78;;;10.90;99.90;;;;;;4975323;28;20140;-82
2023/06/02 04:54:01;;;;;;;12.27;3.00;;;10.90;99.90;;;;;;4986063;28;20042;-85
2023/06/02 04:56:27;;;;;;;17.42;2.88;;;10.90;99.90;;;;;;4992561;28;20103;-82
2023/06/02 04:58:53;;;;;;;11.43;2.83;;;11.00;99.90;;;;;;5009544;28;20045;-85
2023/06/02 05:01:18;;;;;;;13.70;2.97;;;11.00;99.90;;;;;;4973924;28;20049;-88
2023/06/02 05:03:44;;;;;;;15.80;2.83;;;11.00;99.90;;;;;;5016086;28;20052;-86
2023/06/02 05:06:10;;;;;;;10.82;2.80;;;11.00;99.90;;;;;;4991544;28;20103;-86
2023/06/02 05:08:36;;;;;;;11.93;3.10;;;11.00;99.90;;;;;;5009824;28;20045;-84
2023/06/02 05:11:02;;;;;;;14.43;2.88;;;11.10;99.90;;;;;;4993116;28;20069;-83
2023/06/02 05:13:29;;;;;;;12.43;3.90;;;11.10;99.90;;;;;;5007300;28;20049;-81
2023/06/02 05:15:58;;;;;;;10.90;2.67;;;11.20;99.90;;;;;;4977981;28;20203;-82
2023/06/02 05:18:24;;;;;;;12.25;2.80;;;11.20;99.90;;;;;;4993929;28;20276;-84
2023/06/02 05:20:52;;;;;;;10.55;3.33;;;11.30;99.90;;;;;;4980526;28;20041;-82
2023/06/02 05:23:18;;;;;;;16.00;3.20;;;11.30;99.90;;;;;;5010677;28;20060;-83
2023/06/02 05:25:49;;;;;;;14.93;3.27;;;11.40;99.90;;;;;;4971921;28;20046;-83
2023/06/02 05:28:16;;;;;;;10.77;3.03;;;11.40;99.90;;;;;;4990749;28;20076;-83
2023/06/02 05:30:41;;;;;;;13.50;3.72;;;11.50;99.90;;;;;;4977246;28;20141;-89
2023/06/02 05:37:07;;;;;;;15.13;3.50;;;11.70;99.90;;;;;;5036364;28;20062;-84
2023/06/02 05:39:33;;;;;;;15.80;3.35;;;11.70;99.90;;;;;;5010257;28;20076;-87
2023/06/02 05:41:58;;;;;;;13.70;3.08;;;11.80;99.90;;;;;;4993316;28;20143;-87
2023/06/02 05:44:24;;;;;;;12.52;3.10;;;11.80;99.90;;;;;;5003211;28;20045;-86
2023/06/02 05:46:50;;;;;;;10.65;2.58;;;11.80;99.90;;;;;;5011546;28;20045;-84
2023/06/02 05:49:16;;;;;;;14.07;3.08;;;11.90;99.90;;;;;;4990543;28;20178;-85
2023/06/02 05:51:41;;;;;;;11.93;3.15;;;11.90;99.90;;;;;;5008862;28;20135;-86
2023/06/02 05:54:08;;;;;;;11.63;2.97;;;11.90;99.90;;;;;;4994203;28;20034;-84
2023/06/02 05:56:34;;;;;;;15.23;3.03;;;12.00;99.90;;;;;;4995861;28;20146;-90
2023/06/02 05:59:00;;;;;;;14.95;3.45;;;12.10;99.90;;;;;;4976774;28;20106;-82
2023/06/02 06:01:28;;;;;;;10.80;2.80;;;12.10;99.90;;;;;;5026091;28;20081;-83
2023/06/02 06:03:53;;;;;;;12.68;3.40;;;12.10;99.90;;;;;;5027889;28;20080;-81
2023/06/02 06:06:19;;;;;;;8.75;2.47;;;12.20;99.90;;;;;;5010963;28;20481;-82
2023/06/02 06:08:45;;;;;;;17.60;3.33;;;12.20;99.90;;;;;;5007869;28;20057;-86
2023/06/02 06:11:12;;;;;;;12.95;3.60;;;12.30;99.90;;;;;;5003366;28;20079;-81
2023/06/02 06:13:38;;;;;;;15.10;2.88;;;12.30;99.90;;;;;;4987513;28;20049;-82
2023/06/02 06:16:04;;;;;;;9.65;2.65;;;12.40;99.90;;;;;;5007294;28;20038;-80
2023/06/02 06:18:29;;;;;;;14.02;3.58;;;12.40;99.90;;;;;;5007114;28;20052;-80
2023/06/02 06:20:55;;;;;;;8.88;2.75;;;12.50;99.90;;;;;;5008483;28;20064;-79
2023/06/02 06:23:25;;;;;;;16.20;3.05;;;12.60;99.90;;;;;;5007199;28;20045;-80
2023/06/02 06:25:51;;;;;;;12.82;3.20;;;12.70;99.90;;;;;;4986766;28;20038;-80
2023/06/02 06:28:16;;;;;;;12.80;3.10;;;12.80;99.90;;;;;;4991596;28;20116;-80
2023/06/02 06:30:42;;;;;;;9.05;2.75;;;12.80;99.90;;;;;;5009576;28;20037;-81
2023/06/02 06:33:09;;;;;;;14.20;3.10;;;12.90;99.90;;;;;;5025350;28;20034;-82
2023/06/02 06:35:35;;;;;;;15.18;3.60;;;13.00;99.90;;;;;;5024091;28;20057;-81
2023/06/02 06:38:01;;;;;;;18.98;3.45;;;13.00;99.90;;;;;;4989562;28;20780;-80
2023/06/02 06:40:27;;;;;;;14.02;3.40;;;13.20;99.90;;;;;;5010620;28;20041;-82
2023/06/02 06:42:53;;;;;;;12.18;2.67;;;13.30;99.90;;;;;;4977119;28;20041;-81
2023/06/02 06:45:19;;;;;;;15.55;2.80;;;13.40;99.90;;;;;;5010375;28;20512;-81
2023/06/02 06:47:45;;;;;;;8.80;2.80;;;13.70;99.90;;;;;;4988496;28;20038;-81
2023/06/02 06:50:13;;;;;;;11.80;2.92;;;13.80;99.90;;;;;;4993628;28;20049;-81
2023/06/02 06:52:39;;;;;;;9.27;2.28;;;14.00;99.90;;;;;;5011076;28;20490;-80
2023/06/02 06:55:05;;;;;;;8.98;2.28;;;14.20;99.90;;;;;;5011499;28;20095;-82
2023/06/02 06:57:31;;;;;;;13.90;2.85;;;14.80;99.90;;;;;;5012677;28;20100;-85
2023/06/02 06:59:57;;;;;;;9.15;2.08;;;16.60;99.90;;;;;;5026368;28;20076;-81
2023/06/02 07:02:23;;;;;;;11.10;2.92;;;16.50;99.90;;;;;;4990154;28;20387;-83
2023/06/02 07:04:48;;;;;;;10.82;2.75;;;17.40;99.90;;;;;;4993202;28;20046;-81
2023/06/02 07:07:14;;;;;;;9.18;2.47;;;18.10;99.90;;;;;;5025646;28;20048;-82
2023/06/02 07:09:41;;;;;;;8.07;1.80;;;18.30;99.90;;;;;;4993489;28;20518;-82
2023/06/02 07:12:07;;;;;;;11.52;2.63;;;17.80;99.90;;;;;;4992970;28;20538;-81
2023/06/02 07:14:33;;;;;;;7.75;2.30;;;17.50;99.90;;;;;;5009504;28;20158;-80
2023/06/02 07:16:59;;;;;;;8.10;2.03;;;18.10;99.90;;;;;;5008749;28;20096;-82
2023/06/02 07:19:25;;;;;;;8.80;2.00;;;18.60;99.90;;;;;;4992488;28;20112;-80
2023/06/02 07:21:52;;;;;;;6.55;1.65;;;18.70;99.90;;;;;;5007798;28;20049;-81
2023/06/02 07:24:18;;;;;;;8.33;1.47;;;18.90;99.90;;;;;;5009272;28;20494;-81
2023/06/02 07:26:44;;;;;;;5.13;1.90;;;19.50;99.90;;;;;;5009120;28;20490;-80
2023/06/02 07:29:10;;;;;;;7.75;2.03;;;19.80;99.90;;;;;;5007929;28;20915;-81
2023/06/02 07:31:36;;;;;;;6.60;1.77;;;19.70;99.90;;;;;;4992200;28;20080;-82
2023/06/02 07:34:02;;;;;;;6.05;1.38;;;19.50;99.90;;;;;;5009776;28;20040;-82
2023/06/02 07:36:28;;;;;;;4.05;1.48;;;20.00;99.90;;;;;;5025499;28;20458;-82
2023/06/02 07:38:54;;;;;;;3.80;1.20;;;20.80;99.90;;;;;;5020705;28;20060;-82
2023/06/02 07:41:20;;;;;;;3.75;1.02;;;21.30;99.90;;;;;;5024269;28;20092;-83
2023/06/02 07:43:46;;;;;;;5.53;1.00;;;21.80;99.90;;;;;;5026394;28;20505;-82
2023/06/02 07:46:12;;;;;;;2.03;0.73;;;22.30;99.90;;;;;;5008669;28;20072;-83
2023/06/02 07:48:38;;;;;;;4.60;0.98;;;22.20;99.90;;;;;;5025111;28;20093;-83
2023/06/02 07:51:04;;;;;;;5.17;1.03;;;22.60;99.90;;;;;;5007509;28;20072;-84
2023/06/02 07:53:30;;;;;;;3.80;0.70;;;22.90;99.90;;;;;;5005132;28;20472;-82
2023/06/02 07:55:56;;;;;;;4.22;1.00;;;23.20;99.90;;;;;;5025511;28;20099;-86
2023/06/02 07:58:22;;;;;;;3.35;0.90;;;23.40;99.90;;;;;;4997101;28;20045;-83
2023/06/02 08:00:48;;;;;;;2.65;1.02;;;23.60;99.90;;;;;;4982740;28;20122;-83
2023/06/02 08:03:14;;;;;;;3.35;0.93;;;23.60;99.40;;;;;;5023499;28;20049;-83
2023/06/02 08:05:40;;;;;;;1.97;0.53;;;22.90;98.70;;;;;;5013885;28;20099;-80
2023/06/02 08:08:06;;;;;;;2.80;0.50;;;22.20;99.90;;;;;;4989272;28;20061;-83
2023/06/02 08:10:32;;;;;;;4.00;0.60;;;21.50;99.90;;;;;;4982608;28;20049;-82
2023/06/02 08:12:57;;;;;;;3.05;0.63;;;21.00;99.90;;;;;;5007912;28;20773;-85
2023/06/02 08:15:23;;;;;;;1.50;0.43;;;20.60;99.90;;;;;;5007998;28;20099;-84
2023/06/02 08:17:49;;;;;;;2.33;0.57;;;20.30;99.90;;;;;;5024519;28;20091;-83
2023/06/02 08:20:16;;;;;;;2.15;0.75;;;20.20;99.90;;;;;;5008396;28;20510;-83
2023/06/02 08:22:44;;;;;;;1.40;0.60;;;20.00;99.90;;;;;;5006585;28;20046;-84
2023/06/02 08:25:12;;;;;;;2.97;0.80;;;20.00;99.90;;;;;;5005902;28;20100;-82
2023/06/02 08:27:38;;;;;;;3.53;0.82;;;20.40;99.60;;;;;;5007815;28;20103;-83
2023/06/02 08:30:05;;;;;;;2.22;0.57;;;20.70;95.10;;;;;;4991460;28;20422;-83
2023/06/02 08:32:31;;;;;;;2.70;0.65;;;20.80;88.70;;;;;;5008132;28;20050;-83
2023/06/02 08:35:01;;;;;;;3.30;0.93;;;20.70;90.30;;;;;;5013971;28;20128;-83
2023/06/02 08:37:29;;;;;;;2.60;0.63;;;21.00;91.00;;;;;;5007901;28;20137;-84
2023/06/02 08:39:56;;;;;;;4.63;1.10;;;21.40;88.50;;;;;;4993146;28;20103;-82
2023/06/02 08:42:22;;;;;;;1.17;0.40;;;21.90;86.00;;;;;;5033713;28;20322;-86
2023/06/02 08:44:48;;;;;;;5.35;0.85;;;22.30;81.00;;;;;;4992043;28;20479;-81
2023/06/02 08:47:14;;;;;;;1.63;0.65;;;22.50;80.00;;;;;;5004199;28;20049;-84
2023/06/02 08:49:45;;;;;;;3.00;0.70;;;22.60;78.00;;;;;;5003091;28;20052;-86
2023/06/02 08:52:20;;;;;;;3.78;0.75;;;22.80;76.80;;;;;;4992172;28;20131;-81
2023/06/02 08:54:46;;;;;;;3.38;0.50;;;22.90;76.20;;;;;;5002102;28;20408;-83
2023/06/02 08:57:16;;;;;;;7.43;0.80;;;23.00;76.40;;;;;;5008507;28;20053;-81
2023/06/02 08:59:44;;;;;;;3.05;0.60;;;23.00;75.70;;;;;;5008207;28;20074;-81
2023/06/02 09:02:11;;;;;;;1.65;0.40;;;22.90;75.30;;;;;;5024848;28;20095;-83
2023/06/02 09:04:37;;;;;;;3.10;0.63;;;22.80;74.20;;;;;;5009365;28;20049;-84
2023/06/02 09:07:21;;;;;;;3.42;0.70;;;22.70;73.20;;;;;;4992320;28;20136;-83
2023/06/02 09:09:52;;;;;;;4.50;0.82;;;22.60;72.10;;;;;;4974392;28;20530;-82
2023/06/02 09:12:19;;;;;;;5.03;0.75;;;22.60;74.20;;;;;;4997388;28;20132;-84
2023/06/02 09:15:07;;;;;;;4.78;0.70;;;22.60;74.20;;;;;;5009474;28;20091;-85
2023/06/02 09:17:32;;;;;;;5.50;0.90;;;22.50;75.40;;;;;;5022642;28;20116;-85
2023/06/02 09:20:21;;;;;;;3.97;0.80;;;22.30;76.80;;;;;;4988093;28;20041;-83
2023/06/02 09:22:57;;;;;;;1.27;0.50;;;22.10;76.80;;;;;;5023317;28;20104;-83
2023/06/02 09:25:25;;;;;;;2.10;0.77;;;21.80;75.90;;;;;;5024602;28;20094;-85
2023/06/02 09:27:53;;;;;;;1.90;0.73;;;21.60;77.30;;;;;;5024036;28;20520;-86
2023/06/02 09:30:19;;;;;;;4.63;0.75;;;21.40;77.80;;;;;;5006805;28;20041;-82
2023/06/02 09:33:17;;;;;;;2.47;0.90;;;21.10;77.10;;;;;;4991425;28;20042;-85
2023/06/02 09:35:45;;;;;;;3.17;0.63;;;21.00;74.60;;;;;;5008333;28;20488;-87
2023/06/02 09:38:17;;;;;;;0.93;0.40;;;20.90;76.90;;;;;;5020651;28;20088;-83
2023/06/02 09:40:44;;;;;;;2.53;0.45;;;20.70;75.80;;;;;;4987098;28;20080;-85
2023/06/02 09:43:12;;;;;;;2.67;0.70;;;20.70;75.60;;;;;;5009793;28;20513;-85
2023/06/02 09:45:47;;;;;;;3.40;0.60;;;20.70;74.30;;;;;;5012438;28;20119;-86
2023/06/02 09:48:20;;;;;;;2.08;0.45;;;20.70;72.70;;;;;;5008209;28;20049;-84
2023/06/02 09:50:46;;;;;;;1.20;0.43;;;20.80;71.10;;;;;;5008871;28;20056;-84
2023/06/02 09:53:13;;;;;;;1.25;0.50;;;20.80;71.40;;;;;;5025219;28;20037;-84
2023/06/02 09:55:39;;;;;;;2.72;0.88;;;20.80;70.90;;;;;;4981930;28;20290;-84
2023/06/02 09:58:06;;;;;;;3.73;0.60;;;20.80;70.00;;;;;;5027822;28;20091;-83
2023/06/02 10:00:35;;;;;;;2.00;0.60;;;20.90;69.80;;;;;;5018266;28;20049;-85
2023/06/02 10:03:01;;;;;;;1.25;0.40;;;20.80;69.10;;;;;;5005054;28;20085;-83
2023/06/02 10:05:28;;;;;;;2.20;0.50;;;20.90;69.40;;;;;;5025160;28;20140;-84
2023/06/02 10:08:23;;;;;;;2.03;0.55;;;20.90;68.10;;;;;;5015746;28;20466;-84
2023/06/02 10:11:13;;;;;;;2.55;0.60;;;21.00;65.40;;;;;;4999212;28;20095;-85
2023/06/02 10:14:13;;;;;;;0.57;0.30;;;20.90;65.70;;;;;;5024119;28;20192;-83
2023/06/02 10:17:19;;;;;;;1.50;0.50;;;21.00;65.00;;;;;;5025329;28;20430;-83
2023/06/02 10:20:04;;;;;;;2.55;0.70;;;21.10;64.40;;;;;;5020449;28;20053;-84
2023/06/02 10:23:10;;;;;;;3.60;0.80;;;21.10;65.20;;;;;;5009282;28;20103;-86
2023/06/02 10:26:05;;;;;;;1.00;0.50;;;21.10;65.70;;;;;;5028127;28;20495;-85
2023/06/02 10:28:31;;;;;;;1.35;0.50;;;21.00;66.70;;;;;;5004903;28;20065;-83
2023/06/02 10:31:11;;;;;;;1.92;0.50;;;20.90;66.80;;;;;;5010096;28;20061;-83
2023/06/02 10:33:48;;;;;;;1.20;0.57;;;20.90;66.40;;;;;;5002864;28;20045;-83
2023/06/02 10:36:17;;;;;;;2.42;0.50;;;20.80;66.90;;;;;;5010635;28;20053;-85
2023/06/02 10:38:45;;;;;;;1.83;0.60;;;20.80;69.20;;;;;;5007740;28;20053;-83
2023/06/02 10:41:12;;;;;;;5.10;0.75;;;20.80;69.40;;;;;;5029029;28;20044;-83
2023/06/02 10:43:38;;;;;;;5.72;0.73;;;20.90;69.80;;;;;;5006347;28;20084;-83
2023/06/02 10:46:18;;;;;;;1.92;0.75;;;20.90;69.70;;;;;;4992148;28;20061;-85
2023/06/02 10:48:47;;;;;;;2.70;1.00;;;20.90;70.40;;;;;;5009622;28;20081;-83
2023/06/02 10:51:12;;;;;;;4.78;1.25;;;20.90;71.90;;;;;;5007633;28;20258;-83
2023/06/02 10:54:04;;;;;;;5.28;0.98;;;20.90;72.90;;;;;;5025094;28;20045;-87
2023/06/02 10:56:35;;;;;;;4.55;1.08;;;20.90;74.10;;;;;;5000066;28;20500;-85
2023/06/02 10:59:02;;;;;;;2.35;0.70;;;20.80;74.80;;;;;;5027001;28;20056;-83
2023/06/02 11:01:48;;;;;;;3.83;0.90;;;20.80;75.10;;;;;;4991234;28;20053;-83
2023/06/02 11:04:24;;;;;;;5.22;1.30;;;20.90;76.80;;;;;;5011277;28;20509;-85
2023/06/02 11:07:10;;;;;;;2.28;1.27;;;20.90;78.20;;;;;;5028127;28;20041;-86
2023/06/02 11:09:36;;;;;;;3.03;0.90;;;21.00;79.30;;;;;;5002595;28;20092;-86
2023/06/02 11:12:01;;;;;;;3.60;1.20;;;20.80;80.30;;;;;;4989749;28;20561;-86
2023/06/02 11:14:27;;;;;;;3.45;1.35;;;20.70;83.60;;;;;;4998716;28;20049;-86
2023/06/02 11:17:28;;;;;;;5.50;1.35;;;20.60;86.10;;;;;;5002958;28;20042;-84
2023/06/02 11:19:57;;;;;;;3.42;1.30;;;20.50;86.00;;;;;;5006999;28;20060;-84
2023/06/02 11:22:24;;;;;;;2.85;1.15;;;20.50;91.60;;;;;;4994701;28;20037;-87
2023/06/02 11:24:51;;;;;;;4.50;1.25;;;20.50;92.10;;;;;;4990559;28;20072;-83
2023/06/02 11:27:18;;;;;;;4.15;1.35;;;20.40;95.40;;;;;;5022620;28;20044;-85
2023/06/02 11:29:44;;;;;;;5.60;1.17;;;20.70;94.80;;;;;;4992418;28;20038;-85
2023/06/02 11:32:19;;;;;;;5.30;1.15;;;20.70;94.00;;;;;;5009639;28;20252;-83
2023/06/02 11:34:45;;;;;;;3.78;1.23;;;20.80;93.30;;;;;;5009732;28;20049;-84
2023/06/02 11:37:13;;;;;;;3.60;0.80;;;20.90;92.70;;;;;;4991577;28;20515;-85
2023/06/02 11:39:57;;;;;;;2.47;1.00;;;20.80;91.10;;;;;;5009017;28;20073;-87
2023/06/02 11:42:52;;;;;;;2.55;0.90;;;20.70;90.10;;;;;;4986464;28;20084;-84
2023/06/02 11:45:23;;;;;;;3.78;1.15;;;20.90;92.70;;;;;;4993089;28;20406;-88
2023/06/02 11:48:07;;;;;;;4.90;1.17;;;21.00;92.60;;;;;;4989469;28;20119;-87
2023/06/02 11:50:33;;;;;;;2.50;1.00;;;21.10;95.60;;;;;;5023959;28;20041;-85
2023/06/02 11:52:59;;;;;;;4.22;1.30;;;21.00;96.00;;;;;;4992856;28;20131;-84
2023/06/02 11:55:30;;;;;;;2.28;1.20;;;20.90;96.50;;;;;;5008650;28;20041;-87
2023/06/02 11:58:22;;;;;;;2.33;1.20;;;20.80;96.60;;;;;;5022875;28;20479;-84
2023/06/02 12:00:50;;;;;;;2.58;1.40;;;20.60;99.80;;;;;;5024505;28;20050;-84
2023/06/02 12:03:17;;;;;;;3.88;1.63;;;20.50;99.90;;;;;;5009640;28;20419;-84
2023/06/02 12:05:46;;;;;;;6.10;1.60;;;20.30;99.90;;;;;;5009263;28;20045;-85
2023/06/02 12:08:24;;;;;;;3.58;1.63;;;20.30;99.90;;;;;;4993183;28;20390;-86
2023/06/02 12:10:52;;;;;;;3.65;1.50;;;20.30;99.90;;;;;;5012988;28;20128;-85
2023/06/02 12:13:24;;;;;;;5.72;1.58;;;20.40;99.90;;;;;;4994453;28;20707;-86
2023/06/02 12:15:51;;;;;;;5.15;1.42;;;20.30;99.90;;;;;;5022107;28;20454;-89
2023/06/02 12:18:28;;;;;;;5.65;2.05;;;20.10;99.90;;;;;;5019987;28;20029;-81
2023/06/02 12:20:55;;;;;;;6.88;2.08;;;20.10;99.90;;;;;;5025619;28;20398;-86
2023/06/02 12:23:21;;;;;;;;;;;20.00;99.90;;;;;;5022246;28;20038;-84
2023/06/02 12:25:59;;;;;;;4.15;1.60;;;20.00;99.90;;;;;;4997711;28;20128;-84
2023/06/02 12:28:25;;;;;;;5.97;1.80;;;20.00;99.90;;;;;;5016429;28;20617;-83
2023/06/02 12:30:51;;;;;;;6.00;1.67;;;20.00;99.90;;;;;;5023434;28;20136;-81
2023/06/02 12:33:17;;;;;;;6.83;1.90;;;19.90;99.90;;;;;;4990595;28;20623;-85
2023/06/02 12:35:43;;;;;;;6.05;2.10;;;19.80;99.90;;;;;;4989959;28;20484;-85
2023/06/02 12:38:09;;;;;;;8.27;1.98;;;19.70;99.90;;;;;;4972675;28;20045;-85
2023/06/02 12:40:39;;;;;;;5.05;1.80;;;19.80;99.90;;;;;;4985705;28;20076;-87
2023/06/02 12:43:05;;;;;;;5.80;1.90;;;19.80;99.90;;;;;;5025967;28;20459;-81
2023/06/02 12:45:32;;;;;;;5.28;2.00;;;19.80;99.90;;;;;;4991052;28;20042;-83
2023/06/02 12:47:58;;;;;;;4.45;1.98;;;19.60;99.90;;;;;;4989221;28;20045;-83
2023/06/02 12:50:24;;;;;;;3.35;1.38;;;19.60;99.90;;;;;;4990615;28;20038;-84
2023/06/02 12:52:53;;;;;;;6.63;2.00;;;19.70;99.90;;;;;;4992555;28;20037;-87
2023/06/02 12:55:19;;;;;;;6.30;2.08;;;19.70;99.90;;;;;;5009077;28;20049;-83
2023/06/02 12:57:48;;;;;;;5.95;1.90;;;19.70;99.90;;;;;;5007708;28;20041;-81
2023/06/02 13:00:15;;;;;;;5.22;2.30;;;19.70;99.90;;;;;;5026112;28;20045;-82
2023/06/02 13:02:44;;;;;;;5.00;1.92;;;19.70;99.90;;;;;;5009815;28;20042;-83
2023/06/02 13:05:11;;;;;;;3.47;1.63;;;19.70;99.90;;;;;;5007784;28;20053;-81